createdAt,value
2022-08-16T00:01:21.796Z,100.00
2022-08-16T00:03:51.081Z,100.00
2022-08-16T00:06:17.663Z,100.00
2022-08-16T00:08:45.894Z,100.00
2022-08-16T00:11:15.201Z,100.00
2022-08-16T00:13:42.819Z,100.00
2022-08-16T00:17:00.656Z,100.00
2022-08-16T00:18:56.800Z,100.00
2022-08-16T00:21:24.863Z,100.00
2022-08-16T00:23:51.354Z,100.00
2022-08-16T00:26:36.200Z,100.00
2022-08-16T00:29:04.418Z,100.00
2022-08-16T00:31:58.581Z,100.00
2022-08-16T00:34:22.463Z,100.00
2022-08-16T00:37:08.883Z,100.00
2022-08-16T00:39:36.167Z,100.00
2022-08-16T00:42:03.269Z,100.00
2022-08-16T00:44:32.849Z,100.00
2022-08-16T00:47:06.505Z,100.00
2022-08-16T00:49:44.436Z,100.00
2022-08-16T00:52:29.962Z,100.00
2022-08-16T00:54:59.443Z,100.00
2022-08-16T00:57:27.636Z,100.00
2022-08-16T01:00:20.158Z,100.00
2022-08-16T01:02:51.022Z,100.00
2022-08-16T01:05:19.032Z,100.00
2022-08-16T01:07:53.344Z,100.00
2022-08-16T01:10:32.706Z,100.00
2022-08-16T01:13:12.375Z,100.00
2022-08-16T01:15:46.809Z,100.00
2022-08-16T01:18:40.720Z,100.00
2022-08-16T01:21:39.945Z,100.00
2022-08-16T01:24:53.377Z,100.00
2022-08-16T01:27:07.423Z,100.00
2022-08-16T01:29:57.750Z,100.00
2022-08-16T01:32:31.882Z,100.00
2022-08-16T01:35:01.154Z,100.00
2022-08-16T01:37:35.930Z,100.00
2022-08-16T01:40:07.269Z,100.00
2022-08-16T01:42:34.550Z,100.00
2022-08-16T01:45:01.247Z,100.00
2022-08-16T01:47:29.450Z,100.00
2022-08-16T01:50:42.630Z,100.00
2022-08-16T01:52:46.783Z,100.00
2022-08-16T01:55:25.175Z,100.00
2022-08-16T01:57:56.461Z,100.00
2022-08-16T02:00:28.973Z,100.00
2022-08-16T02:02:57.570Z,100.00
2022-08-16T02:05:24.083Z,100.00
2022-08-16T02:07:52.117Z,100.00
2022-08-16T02:10:20.895Z,100.00
2022-08-16T02:12:55.997Z,100.00
2022-08-16T02:15:28.568Z,100.00
2022-08-16T02:17:58.834Z,100.00
2022-08-16T02:20:30.087Z,100.00
2022-08-16T02:22:59.705Z,100.00
2022-08-16T02:25:51.967Z,100.00
2022-08-16T02:28:17.276Z,100.00
2022-08-16T02:30:50.588Z,100.00
2022-08-16T02:33:18.589Z,100.00
2022-08-16T02:35:54.527Z,100.00
2022-08-16T02:38:27.690Z,100.00
2022-08-16T02:40:55.108Z,100.00
2022-08-16T02:43:26.595Z,100.00
2022-08-16T02:45:55.507Z,100.00
2022-08-16T02:48:29.609Z,100.00
2022-08-16T02:51:06.416Z,100.00
2022-08-16T02:53:39.936Z,100.00
2022-08-16T02:56:09.860Z,100.00
2022-08-16T02:58:37.546Z,100.00
2022-08-16T03:01:07.098Z,100.00
2022-08-16T03:04:29.192Z,100.00
2022-08-16T03:06:41.606Z,100.00
2022-08-16T03:09:18.606Z,100.00
2022-08-16T03:11:50.225Z,100.00
2022-08-16T03:14:21.163Z,100.00
2022-08-16T03:16:59.651Z,100.00
2022-08-16T03:19:56.392Z,100.00
2022-08-16T03:22:27.708Z,100.00
2022-08-16T03:25:00.751Z,100.00
2022-08-16T03:27:31.164Z,100.00
2022-08-16T03:30:19.896Z,100.00
2022-08-16T03:32:51.498Z,100.00
2022-08-16T03:35:24.318Z,100.00
2022-08-16T03:38:03.872Z,100.00
2022-08-16T03:40:39.542Z,100.00
2022-08-16T03:43:20.303Z,100.00
2022-08-16T03:45:49.555Z,100.00
2022-08-16T03:48:39.687Z,100.00
2022-08-16T03:51:14.368Z,100.00
2022-08-16T03:54:00.745Z,100.00
2022-08-16T03:56:30.299Z,100.00
2022-08-16T03:58:57.766Z,100.00
2022-08-16T04:01:29.117Z,100.00
2022-08-16T04:03:56.333Z,100.00
2022-08-16T04:06:22.871Z,100.00
2022-08-16T04:08:49.720Z,100.00
2022-08-16T04:11:16.496Z,100.00
2022-08-16T04:13:58.928Z,100.00
2022-08-16T04:16:32.391Z,100.00
2022-08-16T04:19:18.368Z,100.00
2022-08-16T04:21:48.101Z,100.00
2022-08-16T04:24:21.773Z,100.00
2022-08-16T04:26:55.423Z,100.00
2022-08-16T04:29:24.934Z,100.00
2022-08-16T04:31:55.718Z,100.00
2022-08-16T04:34:28.223Z,100.00
2022-08-16T04:36:56.642Z,100.00
2022-08-16T04:39:24.282Z,100.00
2022-08-16T04:41:56.989Z,100.00
2022-08-16T04:44:33.101Z,100.00
2022-08-16T04:47:21.418Z,100.00
2022-08-16T04:49:52.463Z,100.00
2022-08-16T04:52:33.457Z,100.00
2022-08-16T04:55:04.780Z,100.00
2022-08-16T04:57:31.281Z,100.00
2022-08-16T04:59:57.792Z,100.00
2022-08-16T05:02:42.060Z,100.00
2022-08-16T05:05:17.899Z,100.00
2022-08-16T05:07:57.759Z,100.00
2022-08-16T05:10:25.663Z,100.00
2022-08-16T05:12:52.908Z,100.00
2022-08-16T05:15:19.969Z,100.00
2022-08-16T05:17:47.032Z,100.00
2022-08-16T05:20:39.626Z,100.00
2022-08-16T05:23:02.087Z,100.00
2022-08-16T05:25:32.554Z,100.00
2022-08-16T05:28:10.598Z,100.00
2022-08-16T05:30:41.648Z,100.00
2022-08-16T05:33:16.460Z,100.00
2022-08-16T05:35:55.471Z,100.00
2022-08-16T05:38:32.939Z,100.00
2022-08-16T05:41:09.384Z,100.00
2022-08-16T05:43:43.388Z,100.00
2022-08-16T05:46:29.760Z,100.00
2022-08-16T05:49:05.928Z,100.00
2022-08-16T05:51:40.069Z,100.00
2022-08-16T05:54:09.659Z,100.00
2022-08-16T05:56:38.155Z,100.00
2022-08-16T05:59:06.158Z,100.00
2022-08-16T06:01:38.122Z,100.00
2022-08-16T06:04:12.812Z,100.00
2022-08-16T06:06:56.047Z,100.00
2022-08-16T06:09:42.672Z,100.00
2022-08-16T06:12:12.247Z,100.00
2022-08-16T06:14:40.102Z,100.00
2022-08-16T06:17:07.575Z,100.00
2022-08-16T06:19:35.709Z,100.00
2022-08-16T06:22:10.880Z,100.00
2022-08-16T06:24:57.541Z,100.00
2022-08-16T06:27:24.686Z,100.00
2022-08-16T06:29:52.019Z,100.00
2022-08-16T06:32:27.573Z,100.00
2022-08-16T06:35:01.958Z,100.00
2022-08-16T06:37:37.273Z,100.00
2022-08-16T06:40:12.885Z,100.00
2022-08-16T06:42:47.740Z,100.00
2022-08-16T06:45:43.449Z,99.10
2022-08-16T06:48:13.476Z,95.92
2022-08-16T06:50:46.845Z,97.40
2022-08-16T06:53:15.787Z,94.62
2022-08-16T06:56:04.071Z,96.50
2022-08-16T06:58:41.880Z,94.85
2022-08-16T07:01:15.793Z,94.84
2022-08-16T07:03:55.739Z,93.22
2022-08-16T07:06:27.101Z,95.01
2022-08-16T07:08:58.036Z,93.04
2022-08-16T07:11:47.447Z,90.27
2022-08-16T07:14:26.365Z,91.83
2022-08-16T07:16:57.990Z,92.32
2022-08-16T07:20:02.050Z,90.94
2022-08-16T07:22:37.378Z,89.56
2022-08-16T07:24:58.597Z,91.15
2022-08-16T07:27:26.822Z,92.10
2022-08-16T07:29:55.615Z,89.40
2022-08-16T07:32:29.633Z,89.55
2022-08-16T07:34:58.889Z,89.80
2022-08-16T07:37:26.464Z,89.52
2022-08-16T07:40:11.192Z,88.51
2022-08-16T07:42:40.555Z,88.27
2022-08-16T07:45:10.441Z,86.86
2022-08-16T07:47:41.981Z,87.77
2022-08-16T07:50:10.264Z,85.30
2022-08-16T07:52:56.771Z,84.79
2022-08-16T07:55:26.729Z,84.31
2022-08-16T07:58:01.027Z,83.53
2022-08-16T08:00:32.597Z,83.57
2022-08-16T08:03:00.661Z,82.63
2022-08-16T08:05:35.730Z,81.36
2022-08-16T08:08:11.905Z,82.59
2022-08-16T08:10:51.582Z,81.44
2022-08-16T08:13:18.472Z,81.98
2022-08-16T08:15:52.568Z,82.30
2022-08-16T08:18:30.257Z,81.07
2022-08-16T08:20:59.421Z,80.94
2022-08-16T08:23:28.264Z,78.58
2022-08-16T08:25:55.902Z,79.44
2022-08-16T08:28:27.379Z,78.63
2022-08-16T08:31:02.503Z,77.53
2022-08-16T08:33:32.239Z,75.99
2022-08-16T08:36:02.638Z,76.96
2022-08-16T08:38:44.049Z,74.70
2022-08-16T08:41:12.074Z,75.60
2022-08-16T08:43:41.496Z,74.82
2022-08-16T08:46:12.455Z,74.54
2022-08-16T08:48:45.790Z,73.72
2022-08-16T08:51:27.722Z,72.67
2022-08-16T08:54:06.906Z,70.61
2022-08-16T08:56:37.219Z,69.82
2022-08-16T08:59:19.842Z,68.63
2022-08-16T09:01:56.177Z,69.65
2022-08-16T09:04:25.395Z,70.84
2022-08-16T09:06:54.022Z,69.93
2022-08-16T09:09:22.966Z,68.58
2022-08-16T09:12:05.867Z,67.20
2022-08-16T09:14:49.680Z,67.96
2022-08-16T09:17:38.304Z,68.86
2022-08-16T09:20:13.525Z,66.44
2022-08-16T09:22:41.316Z,65.98
2022-08-16T09:25:11.461Z,64.68
2022-08-16T09:27:46.652Z,65.35
2022-08-16T09:30:33.395Z,64.16
2022-08-16T09:33:01.093Z,64.12
2022-08-16T09:35:28.475Z,62.45
2022-08-16T09:38:00.423Z,63.21
2022-08-16T09:40:33.080Z,63.31
2022-08-16T09:43:21.114Z,63.23
2022-08-16T09:45:57.937Z,64.00
2022-08-16T09:48:36.833Z,62.42
2022-08-16T09:51:12.338Z,61.96
2022-08-16T09:53:38.854Z,62.03
2022-08-16T09:56:20.519Z,62.42
2022-08-16T09:59:05.048Z,63.31
2022-08-16T10:01:33.601Z,62.57
2022-08-16T10:04:04.179Z,61.40
2022-08-16T10:06:33.265Z,61.17
2022-08-16T10:09:11.376Z,61.39
2022-08-16T10:12:11.371Z,61.02
2022-08-16T10:14:46.218Z,59.44
2022-08-16T10:17:13.163Z,59.24
2022-08-16T10:19:39.621Z,59.81
2022-08-16T10:22:06.102Z,59.63
2022-08-16T10:24:33.413Z,59.14
2022-08-16T10:27:26.676Z,58.66
2022-08-16T10:29:59.910Z,58.36
2022-08-16T10:32:30.629Z,59.30
2022-08-16T10:34:58.581Z,58.09
2022-08-16T10:37:35.668Z,56.37
2022-08-16T10:40:28.576Z,57.59
2022-08-16T10:42:55.417Z,57.47
2022-08-16T10:45:21.862Z,57.21
2022-08-16T10:48:02.927Z,57.83
2022-08-16T10:50:32.309Z,57.27
2022-08-16T10:52:59.755Z,57.54
2022-08-16T10:55:44.502Z,56.76
2022-08-16T10:58:16.866Z,55.67
2022-08-16T11:00:46.274Z,55.72
2022-08-16T11:06:03.140Z,53.44
2022-08-16T11:08:35.916Z,53.20
2022-08-16T11:11:11.680Z,52.07
2022-08-16T11:14:11.493Z,52.32
2022-08-16T11:19:20.091Z,52.18
2022-08-16T11:24:42.214Z,49.75
2022-08-16T11:27:23.836Z,49.33
2022-08-16T11:29:55.150Z,49.84
2022-08-16T11:32:31.803Z,49.02
2022-08-16T11:35:10.599Z,48.06
2022-08-16T11:40:32.762Z,48.92
2022-08-16T11:43:00.054Z,49.17
2022-08-16T11:45:26.581Z,48.19
2022-08-16T11:47:53.125Z,48.91
2022-08-16T11:50:19.733Z,50.44
2022-08-16T11:52:46.686Z,50.76
2022-08-16T11:55:13.348Z,50.63
2022-08-16T11:57:40.992Z,50.09
2022-08-16T12:00:33.799Z,50.64
2022-08-16T12:02:59.949Z,50.21
2022-08-16T12:05:27.384Z,49.68
2022-08-16T12:07:55.831Z,50.26
2022-08-16T12:10:24.546Z,50.14
2022-08-16T12:12:54.937Z,50.36
2022-08-16T12:15:26.436Z,49.36
2022-08-16T12:17:55.636Z,48.84
2022-08-16T12:20:26.025Z,48.66
2022-08-16T12:22:57.201Z,48.58
2022-08-16T12:25:29.026Z,47.88
2022-08-16T12:27:57.450Z,48.32
2022-08-16T12:30:31.172Z,47.75
2022-08-16T12:33:03.220Z,48.52
2022-08-16T12:35:32.518Z,47.80
2022-08-16T12:38:01.291Z,47.82
2022-08-16T12:40:50.803Z,48.29
2022-08-16T12:43:23.596Z,48.17
2022-08-16T12:45:52.976Z,49.00
2022-08-16T12:48:42.325Z,48.95
2022-08-16T12:51:19.285Z,47.84
2022-08-16T12:53:47.317Z,47.24
2022-08-16T12:56:14.090Z,47.57
2022-08-16T12:58:47.388Z,48.71
2022-08-16T13:01:22.973Z,47.19
2022-08-16T13:03:59.111Z,47.38
2022-08-16T13:06:33.541Z,47.35
2022-08-16T13:09:02.351Z,47.47
2022-08-16T13:11:36.084Z,47.75
2022-08-16T13:14:05.270Z,47.98
2022-08-16T13:16:31.977Z,47.80
2022-08-16T13:19:00.712Z,47.56
2022-08-16T13:21:27.149Z,46.83
2022-08-16T13:23:55.551Z,46.48
2022-08-16T13:26:23.538Z,46.04
2022-08-16T13:28:50.065Z,45.98
2022-08-16T13:31:16.839Z,45.25
2022-08-16T13:33:43.682Z,45.71
2022-08-16T13:36:21.248Z,46.06
2022-08-16T13:38:59.532Z,44.72
2022-08-16T13:41:29.968Z,44.12
2022-08-16T13:43:59.369Z,43.79
2022-08-16T13:46:26.490Z,43.96
2022-08-16T13:48:53.015Z,43.96
2022-08-16T13:51:20.549Z,44.72
2022-08-16T13:53:49.573Z,44.47
2022-08-16T13:56:35.916Z,44.59
2022-08-16T13:59:19.530Z,44.87
2022-08-16T14:01:55.284Z,45.32
2022-08-16T14:04:26.677Z,44.94
2022-08-16T14:06:54.107Z,45.19
2022-08-16T14:09:21.332Z,43.66
2022-08-16T14:11:47.787Z,42.67
2022-08-16T14:14:19.858Z,42.53
2022-08-16T14:16:55.080Z,42.25
2022-08-16T14:19:22.423Z,42.10
2022-08-16T14:21:56.437Z,41.81
2022-08-16T14:24:30.662Z,42.01
2022-08-16T14:26:57.737Z,42.06
2022-08-16T14:29:24.216Z,42.11
2022-08-16T14:31:58.840Z,41.48
2022-08-16T14:34:25.529Z,41.87
2022-08-16T14:36:53.076Z,42.30
2022-08-16T14:39:21.908Z,41.80
2022-08-16T14:41:48.518Z,41.89
2022-08-16T14:44:19.828Z,41.88
2022-08-16T14:46:46.672Z,41.68
2022-08-16T14:49:13.147Z,42.09
2022-08-16T14:51:40.586Z,42.79
2022-08-16T14:54:11.406Z,42.65
2022-08-16T14:56:42.520Z,42.49
2022-08-16T14:59:09.644Z,42.60
2022-08-16T15:01:59.374Z,42.70
2022-08-16T15:04:33.267Z,42.54
2022-08-16T15:07:11.244Z,41.88
2022-08-16T15:10:00.921Z,40.87
2022-08-16T15:12:33.378Z,40.90
2022-08-16T15:15:04.390Z,41.49
2022-08-16T15:17:39.474Z,41.86
2022-08-16T15:20:08.578Z,41.76
2022-08-16T15:22:38.962Z,41.58
2022-08-16T15:25:09.639Z,41.46
2022-08-16T15:27:41.863Z,41.04
2022-08-16T15:30:57.083Z,41.54
2022-08-16T15:33:13.556Z,41.39
2022-08-16T15:35:40.222Z,41.11
2022-08-16T15:38:09.064Z,40.62
2022-08-16T15:40:37.104Z,40.34
2022-08-16T15:43:23.490Z,41.02
2022-08-16T15:46:35.260Z,41.00
2022-08-16T15:49:05.382Z,40.71
2022-08-16T15:51:33.464Z,40.46
2022-08-16T15:54:21.213Z,41.02
2022-08-16T15:56:51.388Z,40.83
2022-08-16T15:59:19.940Z,41.67
2022-08-16T16:01:46.841Z,41.29
2022-08-16T16:04:14.938Z,41.22
2022-08-16T16:06:49.412Z,40.52
2022-08-16T16:09:36.685Z,40.85
2022-08-16T16:12:16.368Z,41.61
2022-08-16T16:14:51.592Z,41.20
2022-08-16T16:17:18.177Z,40.77
2022-08-16T16:19:44.590Z,40.40
2022-08-16T16:22:16.348Z,40.45
2022-08-16T16:24:46.962Z,40.78
2022-08-16T16:27:13.971Z,40.92
2022-08-16T16:29:42.654Z,40.69
2022-08-16T16:32:12.831Z,40.43
2022-08-16T16:34:43.109Z,41.35
2022-08-16T16:37:10.118Z,41.16
2022-08-16T16:39:37.035Z,41.03
2022-08-16T16:42:05.128Z,40.80
2022-08-16T16:44:33.613Z,40.50
2022-08-16T16:47:03.409Z,41.22
2022-08-16T16:49:29.960Z,41.09
2022-08-16T16:52:06.514Z,40.81
2022-08-16T16:54:35.600Z,41.14
2022-08-16T16:57:02.626Z,40.68
2022-08-16T16:59:29.219Z,40.67
2022-08-16T17:02:38.835Z,41.22
2022-08-16T17:04:45.680Z,41.71
2022-08-16T17:07:14.280Z,41.85
2022-08-16T17:09:41.379Z,42.38
2022-08-16T17:12:10.125Z,42.49
2022-08-16T17:14:42.845Z,42.17
2022-08-16T17:17:09.891Z,43.21
2022-08-16T17:19:40.971Z,43.56
2022-08-16T17:22:15.168Z,43.19
2022-08-16T17:24:44.781Z,43.13
2022-08-16T17:27:12.091Z,44.01
2022-08-16T17:29:47.438Z,44.12
2022-08-16T17:32:34.490Z,45.79
2022-08-16T17:35:18.486Z,48.52
2022-08-16T17:37:54.318Z,50.83
2022-08-16T17:40:41.003Z,52.62
2022-08-16T17:43:13.373Z,53.58
2022-08-16T17:45:42.235Z,54.03
2022-08-16T17:48:08.983Z,54.99
2022-08-16T17:50:35.968Z,55.47
2022-08-16T17:53:02.466Z,56.49
2022-08-16T17:55:32.414Z,57.15
2022-08-16T17:57:59.443Z,57.69
2022-08-16T18:00:27.376Z,57.75
2022-08-16T18:02:57.987Z,57.18
2022-08-16T18:05:27.300Z,57.13
2022-08-16T18:07:54.271Z,56.74
2022-08-16T18:10:33.519Z,56.75
2022-08-16T18:13:03.734Z,56.63
2022-08-16T18:15:30.922Z,56.72
2022-08-16T18:17:57.370Z,57.04
2022-08-16T18:20:43.301Z,58.16
2022-08-16T18:23:16.070Z,59.16
2022-08-16T18:25:48.769Z,58.79
2022-08-16T18:28:15.810Z,58.39
2022-08-16T18:30:45.793Z,58.00
2022-08-16T18:33:17.161Z,57.52
2022-08-16T18:35:44.696Z,57.53
2022-08-16T18:38:11.236Z,57.99
2022-08-16T18:40:38.798Z,58.20
2022-08-16T18:43:09.005Z,59.01
2022-08-16T18:45:38.178Z,60.47
2022-08-16T18:48:06.025Z,61.27
2022-08-16T18:50:59.394Z,61.13
2022-08-16T18:53:20.499Z,61.78
2022-08-16T18:55:48.481Z,62.08
2022-08-16T18:58:15.934Z,62.54
2022-08-16T19:00:57.080Z,62.94
2022-08-16T19:03:30.272Z,62.96
2022-08-16T19:06:02.295Z,63.16
2022-08-16T19:08:30.059Z,63.88
2022-08-16T19:10:56.583Z,64.21
2022-08-16T19:13:26.322Z,64.25
2022-08-16T19:15:56.983Z,64.48
2022-08-16T19:18:23.848Z,65.57
2022-08-16T19:20:51.408Z,65.65
2022-08-16T19:23:21.280Z,66.17
2022-08-16T19:25:53.076Z,66.11
2022-08-16T19:28:51.735Z,66.46
2022-08-16T19:31:14.415Z,67.71
2022-08-16T19:33:47.489Z,68.22
2022-08-16T19:36:30.619Z,68.79
2022-08-16T19:38:58.654Z,68.92
2022-08-16T19:41:31.533Z,69.12
2022-08-16T19:43:57.972Z,69.73
2022-08-16T19:46:24.404Z,70.29
2022-08-16T19:48:50.808Z,70.50
2022-08-16T19:51:17.244Z,70.12
2022-08-16T19:53:43.706Z,70.12
2022-08-16T19:56:10.146Z,70.57
2022-08-16T19:58:36.800Z,70.79
2022-08-16T20:01:03.304Z,71.50
2022-08-16T20:03:30.573Z,71.96
2022-08-16T20:05:57.046Z,72.38
2022-08-16T20:08:23.537Z,71.90
2022-08-16T20:10:50.492Z,72.15
2022-08-16T20:13:22.680Z,73.13
2022-08-16T20:15:50.051Z,73.14
2022-08-16T20:18:24.884Z,73.81
2022-08-16T20:20:52.304Z,73.80
2022-08-16T20:23:24.916Z,73.60
2022-08-16T20:25:55.506Z,73.90
2022-08-16T20:28:39.386Z,73.89
2022-08-16T20:31:10.083Z,74.19
2022-08-16T20:33:36.596Z,74.32
2022-08-16T20:36:03.935Z,74.60
2022-08-16T20:38:31.089Z,74.37
2022-08-16T20:40:57.534Z,74.38
2022-08-16T20:43:23.976Z,74.35
2022-08-16T20:45:50.425Z,74.19
2022-08-16T20:48:16.911Z,73.91
2022-08-16T20:50:44.988Z,74.34
2022-08-16T20:53:11.494Z,74.78
2022-08-16T20:55:39.982Z,74.89
2022-08-16T20:58:06.444Z,74.64
2022-08-16T21:00:33.609Z,75.02
2022-08-16T21:03:01.175Z,74.87
2022-08-16T21:05:30.978Z,74.88
2022-08-16T21:07:58.038Z,74.93
2022-08-16T21:10:24.471Z,74.64
2022-08-16T21:12:59.384Z,76.90
2022-08-16T21:15:31.040Z,74.73
2022-08-16T21:17:58.013Z,76.56
2022-08-16T21:20:27.928Z,78.03
2022-08-16T21:22:57.117Z,78.46
2022-08-16T21:25:24.567Z,78.91
2022-08-16T21:28:40.239Z,79.82
2022-08-16T21:30:38.840Z,79.87
2022-08-16T21:33:08.436Z,81.08
2022-08-16T21:35:35.795Z,81.48
2022-08-16T21:38:28.333Z,82.06
2022-08-16T21:40:49.397Z,82.34
2022-08-16T21:43:20.954Z,82.81
2022-08-16T21:45:47.710Z,82.36
2022-08-16T21:48:14.366Z,82.99
2022-08-16T21:50:42.769Z,82.76
2022-08-16T21:53:17.975Z,83.75
2022-08-16T21:55:47.371Z,84.45
2022-08-16T21:58:15.027Z,84.26
2022-08-16T22:00:42.011Z,84.19
2022-08-16T22:03:11.422Z,84.00
2022-08-16T22:05:40.700Z,84.25
2022-08-16T22:08:07.619Z,84.60
2022-08-16T22:11:04.749Z,84.76
2022-08-16T22:13:26.366Z,85.25
2022-08-16T22:15:53.885Z,85.39
2022-08-16T22:18:21.354Z,85.91
2022-08-16T22:20:48.934Z,85.57
2022-08-16T22:23:18.984Z,85.80
2022-08-16T22:25:46.992Z,85.30
2022-08-16T22:28:14.848Z,85.32
2022-08-16T22:30:41.877Z,84.66
2022-08-16T22:33:14.828Z,84.30
2022-08-16T22:35:51.090Z,84.38
2022-08-16T22:38:53.676Z,85.74
2022-08-16T22:41:05.730Z,86.47
2022-08-16T22:43:32.739Z,86.14
2022-08-16T22:45:59.481Z,85.72
2022-08-16T22:48:26.118Z,85.34
2022-08-16T22:50:52.903Z,85.61
2022-08-16T22:53:19.458Z,85.31
2022-08-16T22:55:46.358Z,84.56
2022-08-16T22:58:13.813Z,85.41
2022-08-16T23:00:41.329Z,85.43
2022-08-16T23:03:16.557Z,85.06
2022-08-16T23:05:52.461Z,85.96
2022-08-16T23:08:38.054Z,86.56
2022-08-16T23:11:07.922Z,87.33
2022-08-16T23:13:34.388Z,87.63
2022-08-16T23:16:11.487Z,87.77
2022-08-16T23:18:39.193Z,87.37
2022-08-16T23:21:09.256Z,87.53
2022-08-16T23:23:37.424Z,87.07
2022-08-16T23:26:43.774Z,88.04
2022-08-16T23:28:51.382Z,88.49
2022-08-16T23:31:17.976Z,88.74
2022-08-16T23:33:44.764Z,88.71
2022-08-16T23:36:11.403Z,88.80
2022-08-16T23:38:39.511Z,89.05
2022-08-16T23:41:11.574Z,89.21
2022-08-16T23:43:43.428Z,90.31
2022-08-16T23:46:16.203Z,90.95
2022-08-16T23:49:57.857Z,90.61
2022-08-16T23:51:30.506Z,90.73
2022-08-16T23:53:56.984Z,93.55
2022-08-16T23:56:23.435Z,95.07
2022-08-16T23:58:53.684Z,95.24
